Toernooibase
HOME | LAATST INGEVOERD | RATINGS | TOERNOOIEN | ACTUEEL | PARTIJEN | POSITIES | LINKS |

  
Speler:  Andrew Tjon A Ong 
Leeftijd: 58
KNDB-rating per 1-7-2019: 1302
Hoogste KNDB-rating ooit: 1372
All time gemiddelde KNDB-rating: 1312 
Virtuele KNDB-rating : 1323

FMJD-rating: 2190
Hoogste FMJD-rating ooit: 2236
All time gemiddelde FMJD-rating: 2181

(Grafiek FMJD-rating in periode
KNDB-rating)
     .
     .
DatumToernooiTegenstanderRatWePtR.verN.percN.pun
ma 08-07-2019  Bunschoten Open VPDB  Losseni Savané  1256 1-246 0.56 1.13
di 09-07-2019  Bunschoten Open VPDB  Joop Briedé  929 1-2373 0.9 1.81
wo 10-07-2019  Bunschoten Open VPDB  Henk Jonker  1092 1-2210 0.77 1.54
do 11-07-2019  Bunschoten Open VPDB  Jean Marc Ndjofang  1468 1-1-166 0.28 0.56
do 11-07-2019  Bunschoten Open VPDB  NDiaga Samb  1461 1-1-159 0.29 0.58
vr 12-07-2019  Bunschoten Open VPDB  Leopold Sekongo  1321 1-1-19 0.47 0.95
zo 14-07-2019  WorldCup *** RotterDamsOpen ZHDB  Hein van Winkel  1002 1-2300 0.85 1.71
ma 15-07-2019  WorldCup *** RotterDamsOpen ZHDB  Berke Yiğittürk  1210 1-092 0.63 1.25
di 16-07-2019  WorldCup *** RotterDamsOpen ZHDB  Wim van Schie  917 1-2385 0.91 1.82
do 18-07-2019  WorldCup *** RotterDamsOpen ZHDB  Steven den Hollander  1295 1-17 0.51 1.02
do 18-07-2019  WorldCup *** RotterDamsOpen ZHDB  Maarten Wichgers  1221 1-181 0.61 1.22
vr 19-07-2019  WorldCup *** RotterDamsOpen ZHDB  Hans Tangelder  1152 1-0150 0.7 1.4
zo 21-07-2019  Nijmegen Open GDB  Francis Tholel  1185 1-2117 0.66 1.32
ma 22-07-2019  Nijmegen Open GDB  Sjaam Biekram  1037 1-2265 0.82 1.65
ma 22-07-2019  Nijmegen Open GDB  Kees Hazen  1170 1-2132 0.68 1.36
di 23-07-2019  Nijmegen Open GDB  Johan Krajenbrink  1474 1-1-172 0.27 0.55
di 23-07-2019  Nijmegen Open GDB  Jasper Lemmen  1458 1-1-156 0.29 0.59
wo 24-07-2019  Nijmegen Open GDB  Jos Stokkel  1422 1-1-120 0.34 0.67
do 25-07-2019  Nijmegen Open GDB  Artem Ivanov  1509 1-0-207 0.23 0.47
do 25-07-2019  Nijmegen Open GDB  Raoul Alias  1159 1-2143 0.69 1.38
vr 26-07-2019  Nijmegen Open GDB  Michel Stempher  1370 1-1-68 0.41 0.81
wo 07-08-2019  Provinciaal Brabants Kampioenschap PNDB  Peter Klaassen  1009 1-2293 0.85 1.69
ma 12-08-2019  MTB Open Dutch Championship KNDB  Adriaan Noppers  968 1-1334 0.88 1.76
di 13-08-2019  MTB Open Dutch Championship KNDB  John Folkers  987 1-2315 0.86 1.73
di 13-08-2019  MTB Open Dutch Championship KNDB  Jan Ongolesono  992 1-2310 0.86 1.72
wo 14-08-2019  MTB Open Dutch Championship KNDB  Damien Come Aligna Messinga  1436 1-0-134 0.32 0.64
do 15-08-2019  MTB Open Dutch Championship KNDB  Thijs Verboon  1219 1-183 0.61 1.23
do 15-08-2019  MTB Open Dutch Championship KNDB  Petra Duskova  1070 1-2232 0.79 1.58
vr 16-08-2019  MTB Open Dutch Championship KNDB  Bert Dollekamp  1182 1-2120 0.66 1.33
za 17-08-2019  MTB Open Dutch Championship KNDB  Jos Stokkel  1422 1-1-120 0.34 0.67
zo 01-09-2019  EK Veteranen Korbach Buitenland  Aize Plantinga  1069 1-2233 0.79 1.59
ma 02-09-2019  EK Veteranen Korbach Buitenland  Raphaël Zdoroviak  1151 1-1151 0.7 1.4
di 03-09-2019  EK Veteranen Korbach Buitenland  Fred Ivens  1296 1-16 0.51 1.02
wo 04-09-2019  EK Veteranen Korbach Buitenland  Peter van der Stap  1338 1-0-36 0.45 0.9
do 05-09-2019  EK Veteranen Korbach Buitenland  Theo van den Hoek  1197 1-1105 0.64 1.29
vr 06-09-2019  EK Veteranen Korbach Buitenland  André Nijmeijer  1116 1-2186 0.74 1.48
do 12-09-2019  Provinciaal Brabants Kampioenschap PNDB  Martien van Erp  915 1-1387 0.91 1.82
do 19-09-2019  Provinciale Clubcompetitie UPDB  Gerrit IJssel Sr.  970 1-2332 0.88 1.75
za 28-09-2019  Provinciaal Brabants Kampioenschap PNDB  Noud de Groot  803 1-2499 0.96 1.92
za 28-09-2019  Provinciaal Brabants Kampioenschap PNDB  David Riupassa  1106 1-1196 0.75 1.51
di 01-10-2019  Provinciale Clubcompetitie UPDB  Bryan Brank  1059 1-1243 0.8 1.6
za 05-10-2019  Nationale Clubcompetitie KNDB  Marco de Koning  1187 1-1115 0.66 1.31
di 15-10-2019  Provinciale Clubcompetitie UPDB  Jacco Scheper  955 1-2347 0.89 1.78
za 19-10-2019  Nationale Clubcompetitie KNDB  Francis Tholel  1185 1-1117 0.66 1.32
ma 21-10-2019  Open Herfsttoernooi DDB  Boudewijn van der Veen  1007 1-2295 0.85 1.7
di 22-10-2019  Open Herfsttoernooi DDB  Teus Stam  1050 1-2252 0.81 1.62
di 22-10-2019  Open Herfsttoernooi DDB  Leopold Sekongo  1321 1-1-19 0.47 0.95
wo 23-10-2019  Open Herfsttoernooi DDB  Jan van Dijk  1414 1-1-112 0.35 0.7
wo 23-10-2019  Open Herfsttoernooi DDB  Leo Peters  1020 1-2282 0.84 1.68
do 24-10-2019  Open Herfsttoernooi DDB  Darya Tkachenko  1319 1-1-17 0.48 0.95
do 24-10-2019  Open Herfsttoernooi DDB  Peter van der Stap  1338 1-1-36 0.45 0.9
vr 25-10-2019  Open Herfsttoernooi DDB  Jos Stokkel  1422 1-1-120 0.34 0.67
di 29-10-2019  Provinciale Clubcompetitie UPDB  Bert Habets  1146 1-1156 0.71 1.41
za 02-11-2019  Provinciaal Brabants Kampioenschap PNDB  Fred Passchier  1182 1-2120 0.66 1.33
za 02-11-2019  Provinciaal Brabants Kampioenschap PNDB  Yuriy Lagoda  1388 1-0-86 0.38 0.76
za 09-11-2019  Nationale Clubcompetitie KNDB  Rudi van Velzen  1009 1-2293 0.85 1.69
za 23-11-2019  Nationale Clubcompetitie KNDB  Theo Schippers  1306 1-1-4 0.49 0.99
di 26-11-2019  Provinciale Clubcompetitie UPDB  Harry de Waard  1163 1-1139 0.69 1.37
za 30-11-2019  Provinciaal Brabants Kampioenschap PNDB  Jacques Brouns  1054 1-2248 0.81 1.61
za 30-11-2019  Provinciaal Brabants Kampioenschap PNDB  Frank Teer  1329 1-1-27 0.46 0.92
za 07-12-2019  Nationale Clubcompetitie KNDB  Bertus de Harder  1186 1-1116 0.66 1.32
wo 11-12-2019  Provinciale Clubcompetitie UPDB  Wim Vlooswijk  1090 1-2212 0.77 1.54
za 04-01-2020  Nationale Clubcompetitie KNDB  Richard Kromhout  1360 1-0-58 0.42 0.84
za 11-01-2020  Halve Finale NK Algemeen KNDB  Han Seinhorst  1256 1-246 0.56 1.13
za 11-01-2020  Halve Finale NK Algemeen KNDB  Edwin de Jager  1265 1-137 0.55 1.1
wo 15-01-2020  Provinciaal Kampioenschap Hoofdklasse UPDB  Frits Stuger  993 1-1309 0.86 1.72
za 18-01-2020  Nationale Clubcompetitie KNDB  Wouter Morssink  1247 1-155 0.58 1.15
za 25-01-2020  Halve Finale NK Algemeen KNDB  Bart Terwel  1371 1-1-69 0.4 0.81
za 25-01-2020  Halve Finale NK Algemeen KNDB  Bhiem Ramdien  1383 1-1-81 0.39 0.78
wo 29-01-2020  Provinciaal Kampioenschap Hoofdklasse UPDB  Ton van der Ploeg  971 1-1331 0.88 1.75
za 01-02-2020  Nationale Clubcompetitie KNDB  Christian Niami  1432 1-1-130 0.32 0.65
za 08-02-2020  Halve Finale NK Algemeen KNDB  Hein Meijer  1429 1-1-127 0.33 0.66
za 08-02-2020  Halve Finale NK Algemeen KNDB  Cor Westerveld  1210 1-292 0.63 1.25
wo 12-02-2020  Provinciaal Kampioenschap Hoofdklasse UPDB  Arne van Mourik  1255 1-247 0.57 1.13
za 15-02-2020  Nationale Clubcompetitie KNDB  Bert Verton  1070 1-1232 0.79 1.58
za 22-02-2020  Halve Finale NK Algemeen KNDB  Frits Luteijn  1367 1-1-65 0.41 0.82
wo 26-02-2020  Provinciaal Kampioenschap Hoofdklasse UPDB  Evert van de Pol  1112 1-2190 0.75 1.49
 Totaal:77-10095.81
 Correctiefactor:5 (1948 p.)
 Berekening:100-95.81 x5=20.94
 Virtuele rating: 1323
 Ratinggem.: 1197 Perc.:0.65Vers.: 110
 Seizoenpr. rating: 1197 +110 1307
* officiele KNDB-rating kan afwijkend zijn van virtuele rating in verband met nieuwe iRp-check